createdAt,value
2018-11-05T00:00:40.931Z,18.20
2018-11-05T00:03:09.046Z,17.57
2018-11-05T00:05:37.178Z,17.50
2018-11-05T00:08:05.548Z,16.97
2018-11-05T00:10:33.668Z,18.48
2018-11-05T00:13:01.766Z,17.67
2018-11-05T00:15:29.891Z,18.25
2018-11-05T00:17:58.010Z,15.70
2018-11-05T00:20:26.123Z,16.70
2018-11-05T00:22:54.268Z,17.52
2018-11-05T00:25:22.352Z,16.90
2018-11-05T00:27:50.475Z,18.50
2018-11-05T00:30:18.581Z,18.92
2018-11-05T00:32:46.695Z,17.42
2018-11-05T00:35:14.830Z,18.50
2018-11-05T00:37:42.965Z,18.15
2018-11-05T00:40:14.273Z,19.32
2018-11-05T00:42:42.870Z,18.87
2018-11-05T00:45:11.848Z,17.92
2018-11-05T00:47:40.331Z,17.37
2018-11-05T00:50:10.235Z,16.57
2018-11-05T00:52:38.335Z,18.35
2018-11-05T00:55:06.899Z,18.70
2018-11-05T00:57:35.055Z,17.52
2018-11-05T01:00:03.173Z,18.75
2018-11-05T01:02:31.636Z,18.40
2018-11-05T01:05:00.043Z,17.98
2018-11-05T01:07:28.153Z,17.60
2018-11-05T01:09:56.274Z,18.50
2018-11-05T01:12:24.377Z,19.32
2018-11-05T01:14:52.597Z,17.27
2018-11-05T01:17:20.721Z,16.97
2018-11-05T01:19:48.834Z,17.50
2018-11-05T01:22:16.938Z,17.77
2018-11-05T01:24:45.034Z,17.60
2018-11-05T01:27:13.133Z,17.55
2018-11-05T01:29:41.237Z,18.12
2018-11-05T01:32:09.380Z,19.82
2018-11-05T01:34:37.501Z,17.30
2018-11-05T01:37:06.036Z,18.25
2018-11-05T01:39:34.170Z,18.40
2018-11-05T01:42:02.361Z,17.98
2018-11-05T01:44:30.491Z,19.35
2018-11-05T01:46:58.645Z,19.00
2018-11-05T01:49:26.810Z,16.75
2018-11-05T01:51:54.972Z,17.15
2018-11-05T01:54:23.122Z,17.87
2018-11-05T01:56:51.265Z,18.57
2018-11-05T01:59:19.410Z,20.05
2018-11-05T02:01:47.585Z,18.00
2018-11-05T02:04:15.739Z,17.55
2018-11-05T02:06:43.893Z,18.55
2018-11-05T02:09:12.047Z,19.50
2018-11-05T02:14:14.770Z,19.48
2018-11-05T02:16:42.923Z,18.45
2018-11-05T02:19:11.093Z,18.87
2018-11-05T02:21:39.282Z,18.45
2018-11-05T02:24:07.429Z,17.85
2018-11-05T02:26:35.725Z,17.60
2018-11-05T02:29:03.990Z,18.07
2018-11-05T02:31:32.147Z,18.95
2018-11-05T02:34:00.272Z,18.10
2018-11-05T02:36:28.628Z,17.30
2018-11-05T02:38:56.902Z,17.30
2018-11-05T02:41:25.018Z,17.17
2018-11-05T02:43:53.150Z,18.10
2018-11-05T02:46:21.272Z,16.82
2018-11-05T02:48:49.406Z,17.45
2018-11-05T02:51:24.197Z,18.55
2018-11-05T02:53:52.314Z,18.45
2018-11-05T02:56:20.432Z,18.27
2018-11-05T02:58:48.575Z,17.20
2018-11-05T03:01:16.688Z,17.73
2018-11-05T03:03:44.819Z,17.95
2018-11-05T03:06:12.942Z,18.55
2018-11-05T03:08:41.080Z,17.75
2018-11-05T03:11:09.185Z,17.00
2018-11-05T03:13:37.318Z,18.70
2018-11-05T03:16:06.205Z,17.98
2018-11-05T03:18:34.336Z,17.00
2018-11-05T03:21:02.536Z,18.17
2018-11-05T03:23:30.648Z,18.05
2018-11-05T03:25:58.776Z,18.20
2018-11-05T03:28:26.892Z,18.65
2018-11-05T03:30:55.014Z,17.82
2018-11-05T03:33:23.150Z,17.15
2018-11-05T03:35:51.348Z,17.20
2018-11-05T03:38:19.395Z,16.57
2018-11-05T03:40:47.513Z,17.65
2018-11-05T03:43:15.643Z,17.98
2018-11-05T03:45:43.786Z,17.27
2018-11-05T03:48:11.928Z,17.73
2018-11-05T03:50:40.044Z,16.52
2018-11-05T03:53:08.168Z,18.10
2018-11-05T03:55:36.343Z,18.30
2018-11-05T03:58:04.671Z,16.77
2018-11-05T04:00:32.798Z,18.00
2018-11-05T04:03:00.937Z,16.55
2018-11-05T04:05:29.061Z,17.02
2018-11-05T04:07:57.254Z,18.82
2018-11-05T04:10:25.409Z,18.23
2018-11-05T04:12:53.618Z,18.07
2018-11-05T04:15:21.888Z,18.05
2018-11-05T04:17:49.942Z,18.52
2018-11-05T04:20:18.104Z,19.73
2018-11-05T04:22:46.287Z,18.62
2018-11-05T04:25:14.473Z,17.52
2018-11-05T04:27:42.731Z,18.02
2018-11-05T04:30:12.946Z,18.20
2018-11-05T04:32:41.521Z,18.23
2018-11-05T04:35:10.216Z,18.32
2018-11-05T04:37:38.425Z,17.85
2018-11-05T04:40:07.585Z,17.55
2018-11-05T04:42:35.794Z,18.67
2018-11-05T04:45:04.694Z,17.57
2018-11-05T04:47:32.874Z,19.40
2018-11-05T04:50:01.147Z,17.10
2018-11-05T04:52:29.346Z,18.82
2018-11-05T04:54:57.553Z,20.03
2018-11-05T04:57:25.766Z,17.20
2018-11-05T04:59:53.970Z,17.12
2018-11-05T05:02:22.174Z,18.65
2018-11-05T05:04:50.365Z,18.70
2018-11-05T05:07:18.547Z,18.90
2018-11-05T05:09:46.742Z,16.93
2018-11-05T05:12:14.950Z,18.52
2018-11-05T05:14:43.145Z,17.15
2018-11-05T05:17:11.332Z,17.33
2018-11-05T05:19:39.525Z,18.17
2018-11-05T05:22:07.727Z,18.12
2018-11-05T05:24:35.932Z,18.20
2018-11-05T05:27:04.182Z,18.75
2018-11-05T05:29:32.389Z,16.85
2018-11-05T05:32:00.764Z,18.27
2018-11-05T05:34:28.913Z,17.65
2018-11-05T05:36:57.089Z,18.77
2018-11-05T05:39:25.265Z,17.92
2018-11-05T05:41:54.007Z,19.77
2018-11-05T05:44:23.289Z,18.82
2018-11-05T05:46:51.741Z,17.37
2018-11-05T05:49:20.027Z,19.45
2018-11-05T05:51:48.196Z,17.10
2018-11-05T05:54:16.509Z,18.23
2018-11-05T05:56:45.256Z,17.65
2018-11-05T05:59:13.769Z,16.90
2018-11-05T06:01:41.925Z,17.80
2018-11-05T06:04:10.172Z,17.17
2018-11-05T06:06:38.404Z,17.60
2018-11-05T06:09:08.218Z,16.20
2018-11-05T06:11:36.994Z,17.23
2018-11-05T06:14:05.601Z,17.20
2018-11-05T06:16:34.581Z,16.02
2018-11-05T06:19:03.152Z,17.17
2018-11-05T06:21:31.329Z,15.98
2018-11-05T06:23:59.509Z,17.80
2018-11-05T06:26:27.673Z,18.10
2018-11-05T06:31:35.717Z,17.40
2018-11-05T06:34:04.055Z,17.70
2018-11-05T06:36:32.223Z,17.07
2018-11-05T06:39:00.405Z,17.87
2018-11-05T06:41:28.715Z,17.00
2018-11-05T06:43:56.804Z,17.60
2018-11-05T06:46:24.937Z,17.33
2018-11-05T06:48:53.191Z,17.17
2018-11-05T06:51:21.324Z,17.70
2018-11-05T06:53:49.519Z,18.65
2018-11-05T06:56:17.696Z,18.93
2018-11-05T06:58:45.887Z,18.57
2018-11-05T07:01:14.057Z,16.50
2018-11-05T07:03:42.466Z,17.70
2018-11-05T07:06:10.643Z,17.53
2018-11-05T07:08:38.942Z,16.50
2018-11-05T07:11:07.118Z,17.50
2018-11-05T07:13:35.296Z,17.32
2018-11-05T07:16:03.476Z,17.95
2018-11-05T07:18:31.703Z,18.42
2018-11-05T07:20:59.833Z,19.17
2018-11-05T07:23:28.025Z,19.47
2018-11-05T07:25:56.200Z,17.50
2018-11-05T07:28:24.381Z,17.82
2018-11-05T07:30:52.616Z,16.77
2018-11-05T07:33:20.966Z,16.97
2018-11-05T07:35:49.027Z,18.60
2018-11-05T07:38:17.213Z,17.47
2018-11-05T07:40:45.443Z,16.93
2018-11-05T07:43:14.665Z,17.00
2018-11-05T07:45:42.841Z,18.03
2018-11-05T07:48:11.013Z,17.47
2018-11-05T07:50:39.260Z,17.63
2018-11-05T07:53:07.388Z,18.67
2018-11-05T07:55:35.594Z,18.03
2018-11-05T07:58:03.764Z,17.23
2018-11-05T08:00:37.364Z,17.20
2018-11-05T08:03:06.111Z,17.25
2018-11-05T08:05:34.276Z,16.90
2018-11-05T08:08:02.448Z,17.40
2018-11-05T08:10:30.637Z,16.80
2018-11-05T08:12:58.808Z,16.40
2018-11-05T08:15:26.987Z,17.77
2018-11-05T08:17:55.301Z,17.07
2018-11-05T08:20:23.469Z,17.50
2018-11-05T08:22:51.631Z,17.43
2018-11-05T08:25:19.810Z,18.87
2018-11-05T08:27:47.969Z,16.60
2018-11-05T08:30:18.122Z,17.50
2018-11-05T08:32:46.302Z,17.00
2018-11-05T08:35:14.881Z,17.10
2018-11-05T08:37:43.978Z,16.53
2018-11-05T08:40:15.502Z,18.23
2018-11-05T08:42:44.201Z,16.57
2018-11-05T08:45:13.415Z,16.87
2018-11-05T08:47:41.787Z,16.80
2018-11-05T08:50:12.008Z,17.37
2018-11-05T08:52:40.108Z,16.93
2018-11-05T08:55:10.713Z,16.80
2018-11-05T08:57:39.199Z,16.07
2018-11-05T09:00:15.253Z,17.07
2018-11-05T09:02:44.150Z,17.20
2018-11-05T09:05:12.666Z,17.63
2018-11-05T09:07:40.698Z,16.27
2018-11-05T09:10:09.015Z,16.10
2018-11-05T09:12:37.161Z,17.00
2018-11-05T09:15:06.634Z,18.33
2018-11-05T09:17:34.842Z,16.13
2018-11-05T09:20:03.172Z,16.60
2018-11-05T09:22:31.342Z,17.30
2018-11-05T09:24:59.510Z,12.87
2018-11-05T09:27:28.133Z,16.67
2018-11-05T09:29:56.299Z,17.47
2018-11-05T09:32:24.485Z,16.57
2018-11-05T09:34:52.658Z,16.57
2018-11-05T09:37:20.829Z,16.60
2018-11-05T09:39:48.984Z,17.57
2018-11-05T09:42:17.305Z,15.90
2018-11-05T09:44:45.665Z,17.60
2018-11-05T09:47:13.837Z,18.13
2018-11-05T09:49:42.040Z,16.93
2018-11-05T09:52:10.206Z,18.17
2018-11-05T09:54:38.388Z,17.10
2018-11-05T09:57:06.579Z,17.00
2018-11-05T09:59:34.744Z,16.30
2018-11-05T10:02:02.949Z,17.60
2018-11-05T10:04:31.412Z,16.57
2018-11-05T10:06:59.382Z,17.23
2018-11-05T10:09:27.613Z,16.50
2018-11-05T10:11:55.778Z,17.10
2018-11-05T10:14:23.978Z,16.73
2018-11-05T10:16:52.173Z,15.63
2018-11-05T10:19:20.389Z,16.40
2018-11-05T10:21:48.601Z,16.73
2018-11-05T10:24:16.930Z,17.30
2018-11-05T10:26:45.138Z,15.47
2018-11-05T10:29:13.336Z,17.07
2018-11-05T10:31:41.574Z,16.77
2018-11-05T10:34:09.770Z,16.00
2018-11-05T10:36:38.033Z,16.20
2018-11-05T10:39:08.057Z,16.67
2018-11-05T10:41:36.280Z,17.40
2018-11-05T10:44:05.156Z,16.50
2018-11-05T10:46:33.389Z,15.73
2018-11-05T10:49:01.673Z,16.10
2018-11-05T10:51:30.403Z,16.37
2018-11-05T10:54:05.044Z,17.40
2018-11-05T10:56:33.297Z,15.77
2018-11-05T10:59:01.501Z,17.33
2018-11-05T11:01:35.214Z,17.00
2018-11-05T11:04:09.039Z,16.77
2018-11-05T11:06:37.060Z,16.27
2018-11-05T11:09:07.625Z,16.33
2018-11-05T11:11:36.040Z,15.80
2018-11-05T11:14:04.285Z,17.27
2018-11-05T11:16:32.493Z,15.43
2018-11-05T11:19:00.662Z,15.47
2018-11-05T11:21:28.838Z,14.70
2018-11-05T11:23:57.013Z,15.90
2018-11-05T11:26:25.197Z,15.47
2018-11-05T11:28:53.475Z,14.83
2018-11-05T11:31:21.597Z,14.80
2018-11-05T11:33:49.757Z,15.83
2018-11-05T11:36:18.032Z,15.17
2018-11-05T11:38:46.142Z,14.97
2018-11-05T11:41:14.314Z,16.00
2018-11-05T11:43:42.498Z,15.20
2018-11-05T11:46:10.675Z,16.30
2018-11-05T11:48:38.842Z,16.00
2018-11-05T11:51:07.036Z,16.10
2018-11-05T11:53:35.280Z,15.90
2018-11-05T11:56:03.383Z,15.90
2018-11-05T11:58:31.625Z,16.07
2018-11-05T12:00:59.812Z,15.40
2018-11-05T12:03:28.010Z,15.00
2018-11-05T12:05:56.221Z,15.20
2018-11-05T12:08:24.421Z,15.07
2018-11-05T12:10:53.499Z,16.47
2018-11-05T12:13:21.798Z,14.80
2018-11-05T12:15:50.058Z,15.07
2018-11-05T12:18:18.286Z,10.70
2018-11-05T12:20:46.490Z,15.50
2018-11-05T12:23:14.734Z,15.70
2018-11-05T12:25:42.928Z,16.73
2018-11-05T12:28:11.130Z,16.07
2018-11-05T12:30:39.349Z,15.43
2018-11-05T12:33:07.545Z,17.13
2018-11-05T12:35:35.780Z,14.90
2018-11-05T12:38:04.381Z,16.80
2018-11-05T12:40:32.581Z,16.13
2018-11-05T12:43:00.856Z,16.00
2018-11-05T12:45:29.054Z,17.17
2018-11-05T12:47:57.269Z,16.40
2018-11-05T12:50:25.475Z,16.53
2018-11-05T12:52:54.771Z,17.03
2018-11-05T12:55:23.003Z,16.73
2018-11-05T12:57:51.259Z,17.40
2018-11-05T13:00:21.245Z,16.00
2018-11-05T13:02:55.473Z,16.10
2018-11-05T13:05:24.661Z,16.93
2018-11-05T13:07:53.033Z,16.63
2018-11-05T13:10:21.413Z,15.10
2018-11-05T13:12:49.814Z,15.70
2018-11-05T13:15:18.040Z,15.50
2018-11-05T13:17:46.200Z,15.90
2018-11-05T13:20:15.715Z,15.90
2018-11-05T13:22:44.177Z,16.30
2018-11-05T13:25:12.623Z,15.60
2018-11-05T13:27:42.125Z,17.90
2018-11-05T13:30:11.105Z,17.20
2018-11-05T13:32:39.702Z,17.87
2018-11-05T13:35:09.570Z,16.80
2018-11-05T13:37:38.204Z,14.00
2018-11-05T13:40:07.488Z,17.07
2018-11-05T13:42:35.750Z,16.80
2018-11-05T13:45:03.982Z,17.10
2018-11-05T13:47:32.674Z,17.37
2018-11-05T13:50:00.657Z,16.67
2018-11-05T13:52:28.712Z,19.17
2018-11-05T13:54:57.111Z,17.10
2018-11-05T13:57:25.015Z,16.70
2018-11-05T13:59:53.217Z,17.67
2018-11-05T14:02:21.505Z,18.53
2018-11-05T14:04:49.703Z,18.03
2018-11-05T14:07:17.881Z,17.23
2018-11-05T14:09:46.084Z,19.03
2018-11-05T14:12:14.240Z,17.40
2018-11-05T14:14:42.401Z,17.80
2018-11-05T14:17:10.572Z,17.27
2018-11-05T14:19:38.750Z,17.60
2018-11-05T14:22:06.987Z,17.30
2018-11-05T14:24:35.161Z,18.13
2018-11-05T14:27:03.336Z,19.10
2018-11-05T14:29:31.738Z,18.60
2018-11-05T14:31:59.704Z,19.20
2018-11-05T14:34:27.890Z,18.77
2018-11-05T14:36:56.184Z,20.10
2018-11-05T14:39:24.248Z,20.00
2018-11-05T14:41:52.401Z,8.60
2018-11-05T14:44:20.568Z,18.10
2018-11-05T14:46:48.772Z,18.90
2018-11-05T14:49:16.937Z,19.47
2018-11-05T14:51:45.198Z,19.90
2018-11-05T14:54:13.364Z,19.87
2018-11-05T14:56:41.531Z,18.60
2018-11-05T14:59:09.729Z,19.90
2018-11-05T15:01:37.923Z,20.27
2018-11-05T15:04:06.310Z,12.47
2018-11-05T15:06:34.502Z,18.50
2018-11-05T15:09:02.766Z,20.70
2018-11-05T15:11:31.007Z,19.37
2018-11-05T15:13:59.201Z,19.30
2018-11-05T15:16:27.410Z,20.40
2018-11-05T15:18:55.806Z,19.73
2018-11-05T15:21:23.914Z,20.10
2018-11-05T15:23:52.088Z,18.73
2018-11-05T15:26:20.272Z,20.57
2018-11-05T15:28:48.473Z,20.90
2018-11-05T15:31:16.674Z,22.53
2018-11-05T15:33:44.931Z,21.53
2018-11-05T15:36:13.042Z,19.67
2018-11-05T15:38:41.273Z,21.37
2018-11-05T15:41:09.454Z,19.10
2018-11-05T15:43:37.641Z,20.60
2018-11-05T15:46:06.460Z,19.90
2018-11-05T15:48:34.645Z,19.60
2018-11-05T15:51:02.882Z,21.17
2018-11-05T15:53:31.507Z,19.80
2018-11-05T15:55:59.221Z,20.47
2018-11-05T15:58:27.456Z,21.07
2018-11-05T16:00:55.773Z,21.60
2018-11-05T16:03:23.969Z,21.70
2018-11-05T16:05:52.289Z,22.43
2018-11-05T16:08:20.486Z,21.90
2018-11-05T16:10:48.683Z,21.00
2018-11-05T16:13:16.861Z,21.10
2018-11-05T16:15:45.054Z,20.13
2018-11-05T16:18:13.236Z,22.10
2018-11-05T16:20:41.433Z,20.20
2018-11-05T16:23:09.622Z,20.93
2018-11-05T16:25:37.877Z,23.00
2018-11-05T16:28:06.391Z,33.10
2018-11-05T16:30:34.620Z,24.30
2018-11-05T16:33:02.792Z,21.90
2018-11-05T16:35:31.060Z,22.20
2018-11-05T16:37:59.177Z,22.00
2018-11-05T16:40:27.372Z,22.60
2018-11-05T16:42:55.588Z,22.73
2018-11-05T16:45:23.916Z,21.50
2018-11-05T16:47:52.095Z,21.60
2018-11-05T16:50:23.325Z,21.83
2018-11-05T16:52:51.498Z,21.13
2018-11-05T16:55:19.728Z,23.20
2018-11-05T16:57:47.942Z,21.87
2018-11-05T17:00:16.389Z,20.63
2018-11-05T17:02:45.288Z,22.50
2018-11-05T17:05:13.358Z,22.83
2018-11-05T17:07:41.508Z,21.20
2018-11-05T17:10:10.777Z,21.80
2018-11-05T17:12:38.954Z,22.83
2018-11-05T17:15:08.608Z,20.27
2018-11-05T17:17:37.080Z,20.80
2018-11-05T17:20:07.186Z,23.90
2018-11-05T17:22:35.337Z,24.20
2018-11-05T17:25:03.497Z,21.90
2018-11-05T17:27:31.649Z,22.50
2018-11-05T17:29:59.810Z,21.57
2018-11-05T17:32:27.997Z,24.37
2018-11-05T17:34:56.160Z,22.10
2018-11-05T17:37:24.313Z,22.23
2018-11-05T17:39:52.479Z,30.67
2018-11-05T17:42:20.638Z,33.47
2018-11-05T17:44:48.863Z,28.50
2018-11-05T17:47:17.001Z,22.60
2018-11-05T17:49:45.159Z,22.37
2018-11-05T17:52:13.353Z,23.57
2018-11-05T17:54:41.519Z,25.70
2018-11-05T17:57:09.674Z,23.20
2018-11-05T17:59:37.831Z,23.80
2018-11-05T18:02:06.007Z,24.50
2018-11-05T18:04:34.210Z,24.87
2018-11-05T18:07:02.322Z,23.93
2018-11-05T18:09:30.651Z,24.83
2018-11-05T18:11:58.713Z,26.90
2018-11-05T18:14:26.889Z,26.63
2018-11-05T18:16:55.041Z,30.43
2018-11-05T18:19:23.196Z,28.87
2018-11-05T18:21:51.421Z,28.87
2018-11-05T18:24:19.646Z,25.17
2018-11-05T18:26:47.747Z,25.70
2018-11-05T18:29:15.876Z,27.17
2018-11-05T18:31:44.106Z,27.37
2018-11-05T18:34:12.658Z,26.23
2018-11-05T18:36:40.831Z,33.47
2018-11-05T18:39:10.153Z,32.67
2018-11-05T18:41:38.613Z,52.53
2018-11-05T18:44:06.883Z,27.17
2018-11-05T18:46:35.346Z,30.00
2018-11-05T18:49:03.569Z,60.20
2018-11-05T18:51:31.793Z,29.57
2018-11-05T18:53:59.952Z,27.67
2018-11-05T18:56:28.173Z,26.87
2018-11-05T18:58:56.385Z,25.47
2018-11-05T19:01:24.570Z,26.00
2018-11-05T19:03:52.827Z,25.00
2018-11-05T19:06:20.976Z,26.00
2018-11-05T19:08:49.150Z,27.20
2018-11-05T19:11:17.387Z,25.20
2018-11-05T19:13:45.573Z,23.27
2018-11-05T19:16:13.752Z,24.10
2018-11-05T19:18:41.942Z,25.20
2018-11-05T19:21:10.134Z,24.40
2018-11-05T19:23:38.409Z,25.10
2018-11-05T19:26:06.554Z,25.43
2018-11-05T19:28:34.886Z,26.47
2018-11-05T19:31:02.945Z,25.73
2018-11-05T19:33:31.309Z,24.57
2018-11-05T19:36:02.086Z,26.57
2018-11-05T19:38:30.296Z,27.70
2018-11-05T19:40:58.476Z,27.17
2018-11-05T19:43:26.682Z,25.50
2018-11-05T19:45:54.969Z,27.60
2018-11-05T19:48:23.144Z,26.80
2018-11-05T19:50:51.340Z,26.90
2018-11-05T19:53:19.776Z,27.33
2018-11-05T19:55:47.946Z,25.23
2018-11-05T19:58:16.134Z,26.83
2018-11-05T20:00:44.354Z,27.47
2018-11-05T20:03:12.453Z,25.90
2018-11-05T20:05:40.682Z,27.07
2018-11-05T20:08:08.821Z,27.57
2018-11-05T20:10:37.022Z,29.57
2018-11-05T20:13:05.150Z,28.23
2018-11-05T20:15:33.393Z,28.50
2018-11-05T20:18:01.481Z,27.63
2018-11-05T20:20:29.650Z,27.03
2018-11-05T20:22:57.910Z,27.53
2018-11-05T20:25:25.980Z,27.40
2018-11-05T20:27:54.136Z,28.50
2018-11-05T20:30:23.605Z,26.67
2018-11-05T20:32:53.214Z,26.17
2018-11-05T20:35:20.997Z,26.40
2018-11-05T20:37:49.400Z,28.80
2018-11-05T20:40:18.716Z,25.97
2018-11-05T20:42:47.862Z,28.20
2018-11-05T20:45:16.913Z,27.77
2018-11-05T20:47:45.120Z,27.80
2018-11-05T20:50:14.217Z,27.37
2018-11-05T20:52:42.390Z,26.53
2018-11-05T20:55:11.906Z,27.80
2018-11-05T20:57:40.585Z,27.13
2018-11-05T21:00:10.236Z,27.17
2018-11-05T21:02:38.789Z,27.93
2018-11-05T21:05:07.009Z,26.23
2018-11-05T21:07:35.198Z,24.80
2018-11-05T21:10:04.027Z,25.70
2018-11-05T21:12:32.204Z,27.57
2018-11-05T21:15:00.584Z,27.60
2018-11-05T21:17:28.772Z,28.27
2018-11-05T21:19:56.984Z,26.20
2018-11-05T21:22:25.325Z,26.80
2018-11-05T21:24:53.405Z,29.47
2018-11-05T21:27:21.597Z,26.63
2018-11-05T21:29:49.869Z,26.33
2018-11-05T21:32:18.044Z,26.33
2018-11-05T21:34:46.237Z,26.07
2018-11-05T21:37:14.469Z,25.53
2018-11-05T21:39:42.669Z,26.30
2018-11-05T21:42:10.867Z,27.37
2018-11-05T21:44:39.056Z,26.90
2018-11-05T21:47:07.266Z,26.77
2018-11-05T21:49:35.498Z,25.80
2018-11-05T21:52:03.673Z,27.03
2018-11-05T21:54:31.940Z,28.70
2018-11-05T21:57:00.041Z,27.27
2018-11-05T21:59:28.229Z,26.93
2018-11-05T22:01:56.420Z,25.27
2018-11-05T22:04:24.610Z,26.80
2018-11-05T22:06:52.810Z,27.37
2018-11-05T22:09:21.013Z,25.30
2018-11-05T22:11:49.193Z,27.33
2018-11-05T22:14:17.377Z,27.80
2018-11-05T22:16:45.566Z,29.63
2018-11-05T22:19:13.762Z,29.43
2018-11-05T22:21:41.937Z,27.47
2018-11-05T22:24:10.124Z,25.87
2018-11-05T22:26:38.330Z,26.70
2018-11-05T22:29:06.520Z,26.80
2018-11-05T22:31:34.725Z,25.50
2018-11-05T22:34:02.925Z,27.83
2018-11-05T22:36:31.105Z,27.40
2018-11-05T22:38:59.294Z,26.57
2018-11-05T22:41:27.481Z,26.60
2018-11-05T22:43:55.681Z,27.03
2018-11-05T22:46:23.857Z,27.47
2018-11-05T22:48:52.029Z,28.03
2018-11-05T22:51:20.204Z,27.60
2018-11-05T22:53:48.401Z,25.27
2018-11-05T22:56:16.577Z,26.33
2018-11-05T22:58:44.774Z,26.40
2018-11-05T23:01:18.333Z,27.40
2018-11-05T23:03:46.497Z,26.67
2018-11-05T23:06:14.648Z,27.83
2018-11-05T23:08:42.829Z,27.53
2018-11-05T23:11:10.971Z,26.63
2018-11-05T23:13:39.167Z,24.10
2018-11-05T23:16:07.306Z,25.87
2018-11-05T23:18:35.497Z,27.07
2018-11-05T23:21:03.662Z,25.70
2018-11-05T23:23:31.817Z,26.53
2018-11-05T23:25:59.969Z,25.27
2018-11-05T23:28:28.158Z,24.87
2018-11-05T23:30:56.305Z,25.53
2018-11-05T23:33:24.530Z,26.13
2018-11-05T23:35:52.622Z,26.17
2018-11-05T23:38:20.801Z,26.00
2018-11-05T23:40:48.972Z,24.80
2018-11-05T23:43:17.094Z,25.63
2018-11-05T23:45:45.290Z,27.47
2018-11-05T23:48:13.501Z,27.13
2018-11-05T23:50:41.687Z,26.80
2018-11-05T23:53:09.905Z,26.83
2018-11-05T23:55:38.101Z,25.97
2018-11-05T23:58:06.424Z,28.87
